createdAt,value
2023-08-16T00:00:34.185Z,5.20
2023-08-16T00:03:01.918Z,3.00
2023-08-16T00:05:30.565Z,4.50
2023-08-16T00:07:58.069Z,6.00
2023-08-16T00:10:25.696Z,4.20
2023-08-16T00:12:53.358Z,3.40
2023-08-16T00:15:21.126Z,5.40
2023-08-16T00:17:49.201Z,3.60
2023-08-16T00:20:18.479Z,3.90
2023-08-16T00:22:45.936Z,3.40
2023-08-16T00:25:13.452Z,3.50
2023-08-16T00:27:43.128Z,5.70
2023-08-16T00:30:11.791Z,6.60
2023-08-16T00:32:39.584Z,2.00
2023-08-16T00:35:07.835Z,7.10
2023-08-16T00:37:35.320Z,5.80
2023-08-16T00:40:03.089Z,4.50
2023-08-16T00:42:31.540Z,5.70
2023-08-16T00:44:59.195Z,4.40
2023-08-16T00:47:27.182Z,3.90
2023-08-16T00:49:54.849Z,7.80
2023-08-16T00:52:22.436Z,7.40
2023-08-16T00:54:50.048Z,5.10
2023-08-16T00:57:18.737Z,5.10
2023-08-16T00:59:47.118Z,4.50
2023-08-16T01:02:15.797Z,3.40
2023-08-16T01:04:47.143Z,3.00
2023-08-16T01:07:15.488Z,3.20
2023-08-16T01:09:43.489Z,4.10
2023-08-16T01:12:31.631Z,4.80
2023-08-16T01:15:04.725Z,6.40
2023-08-16T01:17:32.526Z,3.80
2023-08-16T01:20:00.479Z,3.60
2023-08-16T01:22:46.858Z,4.20
2023-08-16T01:25:22.911Z,3.90
2023-08-16T01:27:53.236Z,4.20
2023-08-16T01:30:22.305Z,4.40
2023-08-16T01:32:50.252Z,5.70
2023-08-16T01:35:18.170Z,4.20
2023-08-16T01:37:46.340Z,3.90
2023-08-16T01:40:14.193Z,3.00
2023-08-16T01:42:43.797Z,4.10
2023-08-16T01:45:11.600Z,2.60
2023-08-16T01:47:39.251Z,3.70
2023-08-16T01:50:07.616Z,1.90
2023-08-16T01:52:35.481Z,2.30
2023-08-16T01:55:04.289Z,3.10
2023-08-16T01:57:31.806Z,2.50
2023-08-16T01:59:59.305Z,2.20
2023-08-16T02:02:27.587Z,4.30
2023-08-16T02:04:55.251Z,2.90
2023-08-16T02:07:25.060Z,3.10
2023-08-16T02:09:52.893Z,4.60
2023-08-16T02:12:20.572Z,3.50
2023-08-16T02:14:48.220Z,5.30
2023-08-16T02:17:16.888Z,5.00
2023-08-16T02:19:45.314Z,3.80
2023-08-16T02:22:12.940Z,4.30
2023-08-16T02:24:41.634Z,5.80
2023-08-16T02:27:09.144Z,4.90
2023-08-16T02:29:37.355Z,6.70
2023-08-16T02:32:05.425Z,1.70
2023-08-16T02:34:32.915Z,2.20
2023-08-16T02:37:00.646Z,2.70
2023-08-16T02:39:28.420Z,4.50
2023-08-16T02:41:56.282Z,1.60
2023-08-16T02:44:23.936Z,3.20
2023-08-16T02:46:53.257Z,4.70
2023-08-16T02:49:20.901Z,3.10
2023-08-16T02:51:48.456Z,5.10
2023-08-16T02:54:16.234Z,5.90
2023-08-16T02:56:43.879Z,4.00
2023-08-16T02:59:13.819Z,3.40
2023-08-16T03:01:41.454Z,4.30
2023-08-16T03:04:10.237Z,4.90
2023-08-16T03:06:37.852Z,6.00
2023-08-16T03:09:05.770Z,5.30
2023-08-16T03:11:33.330Z,4.20
2023-08-16T03:14:01.089Z,7.10
2023-08-16T03:16:28.661Z,2.80
2023-08-16T03:18:57.886Z,3.80
2023-08-16T03:21:25.816Z,2.50
2023-08-16T03:23:53.315Z,3.30
2023-08-16T03:26:20.936Z,5.40
2023-08-16T03:28:48.727Z,3.20
2023-08-16T03:31:16.420Z,3.80
2023-08-16T03:33:44.225Z,3.10
2023-08-16T03:36:12.025Z,4.80
2023-08-16T03:38:39.547Z,2.90
2023-08-16T03:41:07.312Z,3.50
2023-08-16T03:43:38.354Z,2.50
2023-08-16T03:46:06.341Z,3.60
2023-08-16T03:48:34.046Z,1.70
2023-08-16T03:51:01.651Z,4.20
2023-08-16T03:53:29.407Z,2.00
2023-08-16T03:55:57.895Z,5.00
2023-08-16T03:58:26.161Z,4.40
2023-08-16T04:00:53.926Z,5.60
2023-08-16T04:03:21.921Z,5.40
2023-08-16T04:05:49.504Z,5.70
2023-08-16T04:08:17.315Z,7.20
2023-08-16T04:10:45.078Z,6.60
2023-08-16T04:13:12.757Z,8.70
2023-08-16T04:15:40.411Z,6.90
2023-08-16T04:18:08.119Z,10.40
2023-08-16T04:20:36.341Z,4.50
2023-08-16T04:23:05.041Z,8.30
2023-08-16T04:25:32.584Z,9.40
2023-08-16T04:28:00.289Z,7.80
2023-08-16T04:30:27.809Z,16.00
2023-08-16T04:32:55.420Z,13.80
2023-08-16T04:35:24.773Z,21.50
2023-08-16T04:37:52.529Z,15.90
2023-08-16T04:40:20.737Z,13.40
2023-08-16T04:42:48.165Z,14.60
2023-08-16T04:45:15.740Z,10.10
2023-08-16T04:47:43.741Z,7.10
2023-08-16T04:50:12.160Z,9.60
2023-08-16T04:52:39.870Z,5.60
2023-08-16T04:55:07.928Z,6.00
2023-08-16T04:57:36.420Z,4.00
2023-08-16T05:00:08.703Z,6.80
2023-08-16T05:02:42.208Z,5.10
2023-08-16T05:05:09.977Z,8.50
2023-08-16T05:07:39.477Z,6.70
2023-08-16T05:10:07.817Z,6.10
2023-08-16T05:12:35.764Z,5.80
2023-08-16T05:15:03.763Z,4.30
2023-08-16T05:17:32.784Z,4.80
2023-08-16T05:20:01.053Z,8.10
2023-08-16T05:22:29.107Z,6.00
2023-08-16T05:24:56.548Z,3.30
2023-08-16T05:27:24.351Z,6.70
2023-08-16T05:29:52.314Z,7.10
2023-08-16T05:32:19.789Z,5.40
2023-08-16T05:34:47.246Z,4.00
2023-08-16T05:37:14.865Z,6.90
2023-08-16T05:39:43.816Z,6.20
2023-08-16T05:42:11.685Z,6.30
2023-08-16T05:44:39.210Z,5.90
2023-08-16T05:47:06.864Z,5.70
2023-08-16T05:49:34.362Z,4.50
2023-08-16T05:52:01.920Z,8.10
2023-08-16T05:54:29.476Z,6.60
2023-08-16T05:56:58.779Z,7.10
2023-08-16T05:59:27.615Z,6.60
2023-08-16T06:01:55.268Z,6.00
2023-08-16T06:04:22.734Z,4.70
2023-08-16T06:06:50.596Z,5.10
2023-08-16T06:09:20.061Z,3.30
2023-08-16T06:11:49.552Z,4.80
2023-08-16T06:14:17.089Z,6.20
2023-08-16T06:16:46.071Z,5.70
2023-08-16T06:19:15.018Z,4.70
2023-08-16T06:21:42.588Z,7.10
2023-08-16T06:24:10.089Z,6.10
2023-08-16T06:26:37.553Z,5.60
2023-08-16T06:29:05.505Z,5.50
2023-08-16T06:31:33.157Z,6.40
2023-08-16T06:34:01.833Z,5.70
2023-08-16T06:36:29.543Z,4.60
2023-08-16T06:38:57.021Z,6.30
2023-08-16T06:41:24.923Z,5.70
2023-08-16T06:43:52.579Z,5.40
2023-08-16T06:46:20.272Z,5.40
2023-08-16T06:48:49.081Z,4.00
2023-08-16T06:51:17.009Z,5.30
2023-08-16T06:53:47.218Z,3.20
2023-08-16T06:56:14.908Z,7.50
2023-08-16T06:58:45.235Z,7.30
2023-08-16T07:01:13.015Z,4.70
2023-08-16T07:03:40.847Z,5.70
2023-08-16T07:06:08.597Z,5.60
2023-08-16T07:08:36.261Z,4.70
2023-08-16T07:11:03.830Z,2.60
2023-08-16T07:13:31.486Z,4.20
2023-08-16T07:15:59.180Z,1.90
2023-08-16T07:18:26.746Z,3.80
2023-08-16T07:20:54.363Z,4.90
2023-08-16T07:23:22.046Z,7.70
2023-08-16T07:25:55.527Z,2.50
2023-08-16T07:28:25.168Z,3.10
2023-08-16T07:30:56.166Z,4.40
2023-08-16T07:33:23.942Z,2.30
2023-08-16T07:35:51.508Z,3.80
2023-08-16T07:38:21.016Z,3.40
2023-08-16T07:40:49.427Z,3.40
2023-08-16T07:43:17.140Z,4.00
2023-08-16T07:45:44.659Z,4.10
2023-08-16T07:48:12.536Z,2.60
2023-08-16T07:50:40.313Z,2.40
2023-08-16T07:53:07.921Z,3.20
2023-08-16T07:55:35.741Z,3.20
2023-08-16T07:58:03.926Z,2.60
2023-08-16T08:00:36.031Z,2.90
2023-08-16T08:03:06.801Z,3.00
2023-08-16T08:05:34.694Z,3.30
2023-08-16T08:08:02.629Z,4.30
2023-08-16T08:10:33.286Z,3.80
2023-08-16T08:13:01.773Z,4.00
2023-08-16T08:15:30.160Z,3.20
2023-08-16T08:17:58.631Z,2.30
2023-08-16T08:20:26.619Z,2.90
2023-08-16T08:22:54.201Z,2.40
2023-08-16T08:25:21.825Z,2.50
2023-08-16T08:27:49.423Z,2.50
2023-08-16T08:30:19.420Z,2.60
2023-08-16T08:32:47.216Z,3.80
2023-08-16T08:35:14.860Z,2.70
2023-08-16T08:37:42.407Z,3.40
2023-08-16T08:40:09.935Z,3.30
2023-08-16T08:42:37.526Z,2.60
2023-08-16T08:45:05.502Z,2.30
2023-08-16T08:47:33.386Z,2.20
2023-08-16T08:50:01.134Z,2.90
2023-08-16T08:52:29.182Z,2.30
2023-08-16T08:54:56.738Z,3.20
2023-08-16T08:57:25.418Z,3.60
2023-08-16T08:59:54.448Z,3.80
2023-08-16T09:02:22.816Z,2.50
2023-08-16T09:04:52.244Z,4.00
2023-08-16T09:07:20.051Z,3.60
2023-08-16T09:09:49.763Z,5.60
2023-08-16T09:12:17.349Z,2.70
2023-08-16T09:14:44.798Z,2.00
2023-08-16T09:17:12.386Z,2.90
2023-08-16T09:19:46.702Z,4.00
2023-08-16T09:22:14.580Z,2.90
2023-08-16T09:24:44.638Z,3.70
2023-08-16T09:27:12.423Z,5.10
2023-08-16T09:29:41.165Z,3.90
2023-08-16T09:32:21.956Z,2.90
2023-08-16T09:34:56.182Z,3.40
2023-08-16T09:37:26.147Z,2.00
2023-08-16T09:40:00.783Z,3.10
2023-08-16T09:42:34.957Z,3.20
2023-08-16T09:45:03.119Z,3.90
2023-08-16T10:09:34.534Z,2.70
2023-08-16T10:12:06.191Z,2.90
2023-08-16T10:14:33.934Z,3.30
2023-08-16T10:17:07.452Z,2.20
2023-08-16T10:19:38.582Z,4.40
2023-08-16T10:22:34.354Z,4.40
2023-08-16T10:25:07.995Z,4.40
2023-08-16T10:27:38.577Z,4.30
2023-08-16T10:30:09.086Z,3.10
2023-08-16T10:32:37.956Z,2.90
2023-08-16T10:35:07.002Z,4.10
2023-08-16T10:37:39.763Z,3.00
2023-08-16T10:42:58.105Z,3.10
2023-08-16T10:45:27.373Z,3.00
2023-08-16T10:48:13.491Z,2.20
2023-08-16T10:50:41.786Z,3.40
2023-08-16T10:53:09.710Z,3.50
2023-08-16T10:55:37.390Z,3.60
2023-08-16T10:58:05.056Z,4.00
2023-08-16T11:00:34.204Z,3.30
2023-08-16T11:03:02.936Z,5.20
2023-08-16T11:05:34.887Z,4.40
2023-08-16T11:08:03.070Z,4.70
2023-08-16T11:10:37.426Z,2.90
2023-08-16T11:15:37.007Z,4.20
2023-08-16T11:18:09.585Z,3.10
2023-08-16T11:20:38.110Z,6.60
2023-08-16T11:23:05.730Z,2.10
2023-08-16T11:25:34.769Z,4.10
2023-08-16T11:28:04.553Z,3.40
2023-08-16T11:30:32.705Z,2.60
2023-08-16T11:33:01.324Z,2.80
2023-08-16T11:35:29.038Z,4.10
2023-08-16T11:37:56.737Z,5.00
2023-08-16T11:40:25.496Z,3.20
2023-08-16T11:42:55.226Z,3.90
2023-08-16T11:45:27.125Z,3.00
2023-08-16T11:47:55.583Z,2.90
2023-08-16T11:50:24.651Z,2.50
2023-08-16T11:53:02.672Z,3.30
2023-08-16T11:55:31.441Z,4.20
2023-08-16T11:58:04.457Z,3.70
2023-08-16T12:00:33.837Z,5.20
2023-08-16T12:03:33.241Z,4.40
2023-08-16T12:06:06.850Z,3.20
2023-08-16T12:08:35.477Z,3.00
2023-08-16T12:11:06.672Z,4.30
2023-08-16T12:13:35.288Z,3.90
2023-08-16T12:16:02.897Z,3.60
2023-08-16T12:18:30.692Z,2.60
2023-08-16T12:20:59.647Z,4.30
2023-08-16T12:23:27.355Z,3.20
2023-08-16T12:25:55.919Z,3.20
2023-08-16T12:28:24.404Z,4.10
2023-08-16T12:30:51.965Z,2.80
2023-08-16T12:33:19.639Z,2.40
2023-08-16T12:38:20.101Z,2.30
2023-08-16T12:40:47.742Z,2.80
2023-08-16T12:45:44.916Z,2.30
2023-08-16T12:48:15.634Z,3.40
2023-08-16T12:50:43.400Z,1.80
2023-08-16T12:55:43.029Z,4.20
2023-08-16T12:58:21.553Z,2.20
2023-08-16T13:00:49.621Z,3.90
2023-08-16T13:03:31.529Z,3.10
2023-08-16T13:06:07.635Z,2.00
2023-08-16T13:11:09.658Z,4.20
2023-08-16T13:13:39.488Z,4.20
2023-08-16T13:16:10.590Z,2.30
2023-08-16T13:18:44.624Z,3.70
2023-08-16T13:23:58.757Z,2.60
2023-08-16T13:26:38.088Z,3.60
2023-08-16T13:29:12.575Z,3.70
2023-08-16T13:39:28.745Z,6.40
2023-08-16T13:47:00.903Z,2.40
2023-08-16T13:49:28.727Z,2.70
2023-08-16T13:51:56.894Z,3.60
2023-08-16T13:54:24.374Z,2.70
2023-08-16T13:56:51.797Z,2.20
2023-08-16T13:59:19.431Z,3.70
2023-08-16T14:01:47.120Z,2.60
2023-08-16T14:04:15.139Z,4.10
2023-08-16T14:06:43.381Z,4.30
2023-08-16T14:09:11.255Z,3.00
2023-08-16T14:11:39.217Z,3.50
2023-08-16T14:14:07.193Z,3.00
2023-08-16T14:16:37.123Z,5.20
2023-08-16T14:19:06.450Z,4.30
2023-08-16T14:21:33.941Z,3.80
2023-08-16T14:24:01.524Z,5.40
2023-08-16T14:26:29.213Z,3.20
2023-08-16T14:28:56.848Z,3.50
2023-08-16T14:31:24.417Z,5.10
2023-08-16T14:33:52.072Z,2.70
2023-08-16T14:36:19.626Z,3.60
2023-08-16T14:38:59.269Z,2.60
2023-08-16T14:41:28.612Z,6.70
2023-08-16T14:43:56.266Z,2.70
2023-08-16T14:46:24.334Z,3.40
2023-08-16T14:48:55.222Z,3.10
2023-08-16T14:51:23.129Z,2.70
2023-08-16T14:53:50.697Z,3.10
2023-08-16T14:56:18.161Z,3.80
2023-08-16T14:58:45.902Z,3.60
2023-08-16T15:01:13.568Z,4.10
2023-08-16T15:03:41.191Z,5.20
2023-08-16T15:06:09.031Z,2.90
2023-08-16T15:08:37.385Z,3.70
2023-08-16T15:11:16.858Z,3.90
2023-08-16T15:13:44.775Z,2.50
2023-08-16T15:16:13.815Z,2.80
2023-08-16T15:18:41.307Z,2.30
2023-08-16T15:21:08.769Z,4.20
2023-08-16T15:23:38.344Z,2.70
2023-08-16T15:26:09.446Z,2.30
2023-08-16T15:28:38.581Z,3.60
2023-08-16T15:31:06.615Z,3.80
2023-08-16T15:33:35.513Z,2.30
2023-08-16T15:36:03.462Z,2.50
2023-08-16T15:38:42.811Z,2.60
2023-08-16T15:41:10.963Z,2.10
2023-08-16T15:43:38.937Z,2.90
2023-08-16T15:46:07.166Z,3.10
2023-08-16T15:48:34.760Z,3.00
2023-08-16T15:51:02.281Z,3.90
2023-08-16T15:53:29.742Z,2.80
2023-08-16T15:55:57.368Z,2.50
2023-08-16T15:58:27.187Z,4.10
2023-08-16T16:01:00.504Z,2.30
2023-08-16T16:03:29.450Z,2.30
2023-08-16T16:05:58.124Z,2.30
2023-08-16T16:08:26.106Z,2.80
2023-08-16T16:10:54.178Z,2.90
2023-08-16T16:13:22.146Z,2.90
2023-08-16T16:15:50.139Z,1.70
2023-08-16T16:18:18.697Z,2.60
2023-08-16T16:20:46.564Z,2.90
2023-08-16T16:23:14.398Z,2.60
2023-08-16T16:25:42.710Z,3.20
2023-08-16T16:28:10.626Z,2.70
2023-08-16T16:30:38.241Z,5.20
2023-08-16T16:33:06.862Z,2.90
2023-08-16T16:35:37.813Z,3.20
2023-08-16T16:38:08.074Z,3.70
2023-08-16T16:40:35.754Z,3.00
2023-08-16T16:43:03.756Z,2.10
2023-08-16T16:45:31.400Z,3.40
2023-08-16T16:47:59.092Z,3.10
2023-08-16T16:50:27.440Z,3.50
2023-08-16T16:52:55.291Z,2.90
2023-08-16T16:55:22.851Z,1.60
2023-08-16T16:57:50.440Z,2.30
2023-08-16T17:00:18.587Z,3.30
2023-08-16T17:02:46.038Z,2.30
2023-08-16T17:05:13.603Z,1.70
2023-08-16T17:07:41.158Z,2.10
2023-08-16T17:10:09.233Z,4.00
2023-08-16T17:12:36.813Z,2.50
2023-08-16T17:15:05.686Z,3.40
2023-08-16T17:18:18.943Z,3.00
2023-08-16T17:20:46.876Z,3.70
2023-08-16T17:23:14.539Z,1.70
2023-08-16T17:25:48.035Z,2.20
2023-08-16T17:28:15.828Z,2.70
2023-08-16T17:30:48.236Z,3.70
2023-08-16T17:33:15.905Z,3.30
2023-08-16T17:35:44.523Z,2.30
2023-08-16T17:38:13.534Z,2.80
2023-08-16T17:40:41.173Z,3.60
2023-08-16T17:43:10.084Z,3.00
2023-08-16T17:45:37.939Z,4.80
2023-08-16T17:51:09.902Z,5.50
2023-08-16T17:53:37.434Z,4.80
2023-08-16T17:56:05.617Z,6.40
2023-08-16T17:58:33.372Z,5.00
2023-08-16T18:01:01.500Z,4.10
2023-08-16T18:03:29.722Z,5.80
2023-08-16T18:05:57.687Z,4.90
2023-08-16T18:08:25.657Z,2.90
2023-08-16T18:10:53.252Z,3.10
2023-08-16T18:13:23.879Z,4.20
2023-08-16T18:15:52.440Z,6.50
2023-08-16T18:18:20.210Z,6.50
2023-08-16T18:20:54.043Z,5.70
2023-08-16T18:23:24.950Z,6.50
2023-08-16T18:25:53.217Z,12.70
2023-08-16T18:28:21.916Z,32.70
2023-08-16T18:30:54.320Z,26.70
2023-08-16T18:33:22.150Z,28.80
2023-08-16T18:35:49.830Z,17.60
2023-08-16T18:38:20.539Z,17.00
2023-08-16T18:40:48.301Z,15.90
2023-08-16T18:43:16.678Z,10.10
2023-08-16T18:45:49.096Z,12.20
2023-08-16T18:48:19.520Z,14.10
2023-08-16T18:50:48.776Z,9.30
2023-08-16T18:53:19.938Z,12.50
2023-08-16T18:55:48.097Z,11.90
2023-08-16T18:58:17.608Z,11.50
2023-08-16T19:00:46.528Z,12.20
2023-08-16T19:03:14.782Z,15.80
2023-08-16T19:05:46.323Z,12.70
2023-08-16T19:08:16.150Z,17.10
2023-08-16T19:10:49.265Z,17.80
2023-08-16T19:13:19.768Z,17.00
2023-08-16T19:15:48.434Z,11.40
2023-08-16T19:18:16.931Z,14.10
2023-08-16T19:20:46.475Z,18.00
2023-08-16T19:23:15.452Z,16.60
2023-08-16T19:25:44.245Z,21.60
2023-08-16T19:28:15.288Z,18.40
2023-08-16T19:30:43.025Z,22.40
2023-08-16T19:33:10.768Z,29.40
2023-08-16T19:35:39.554Z,27.30
2023-08-16T19:38:09.371Z,27.60
2023-08-16T19:40:37.382Z,22.80
2023-08-16T19:43:06.430Z,23.70
2023-08-16T19:45:36.865Z,25.20
2023-08-16T19:48:05.160Z,23.80
2023-08-16T19:50:32.799Z,18.80
2023-08-16T19:53:00.559Z,17.40
2023-08-16T19:55:28.216Z,20.10
2023-08-16T19:57:55.981Z,17.00
2023-08-16T20:00:23.650Z,12.50
2023-08-16T20:02:51.320Z,10.60
2023-08-16T20:05:18.971Z,10.90
2023-08-16T20:07:46.526Z,11.50
2023-08-16T20:10:14.203Z,11.60
2023-08-16T20:12:41.965Z,12.90
2023-08-16T20:15:10.356Z,14.10
2023-08-16T20:17:38.003Z,16.40
2023-08-16T20:20:07.790Z,15.00
2023-08-16T20:22:38.200Z,12.50
2023-08-16T20:25:07.301Z,11.20
2023-08-16T20:27:34.806Z,11.80
2023-08-16T20:30:02.268Z,12.20
2023-08-16T20:32:29.932Z,11.20
2023-08-16T20:34:58.793Z,16.00
2023-08-16T20:37:28.251Z,12.60
2023-08-16T20:39:55.990Z,14.40
2023-08-16T20:42:33.971Z,11.60
2023-08-16T20:45:02.864Z,12.00
2023-08-16T20:47:30.759Z,20.20
2023-08-16T20:49:58.994Z,27.50
2023-08-16T20:52:26.960Z,16.20
2023-08-16T20:54:56.985Z,11.50
2023-08-16T20:57:25.290Z,14.30
2023-08-16T20:59:53.432Z,14.00
2023-08-16T21:02:21.299Z,13.10
2023-08-16T21:04:49.250Z,11.10
2023-08-16T21:07:16.958Z,12.30
2023-08-16T21:09:44.452Z,11.70
2023-08-16T21:12:12.161Z,10.90
2023-08-16T21:14:40.642Z,9.50
2023-08-16T21:17:08.798Z,10.20
2023-08-16T21:19:36.666Z,8.50
2023-08-16T21:22:04.606Z,9.20
2023-08-16T21:24:32.395Z,10.20
2023-08-16T21:27:00.942Z,8.90
2023-08-16T21:29:28.593Z,6.60
2023-08-16T21:31:56.203Z,9.60
2023-08-16T21:34:23.972Z,6.00
2023-08-16T21:36:51.648Z,8.60
2023-08-16T21:39:19.184Z,6.80
2023-08-16T21:41:46.847Z,4.70
2023-08-16T21:44:15.192Z,10.30
2023-08-16T21:46:43.825Z,6.40
2023-08-16T21:49:11.884Z,6.30
2023-08-16T21:51:39.650Z,7.00
2023-08-16T21:54:07.329Z,7.10
2023-08-16T21:56:34.966Z,7.60
2023-08-16T21:59:02.852Z,6.00
2023-08-16T22:01:30.524Z,11.20
2023-08-16T22:03:58.179Z,6.50
2023-08-16T22:06:25.718Z,8.20
2023-08-16T22:08:53.268Z,6.20
2023-08-16T22:11:21.249Z,5.30
2023-08-16T22:13:48.825Z,3.90
2023-08-16T22:16:16.498Z,8.00
2023-08-16T22:18:44.117Z,5.90
2023-08-16T22:21:11.814Z,6.10
2023-08-16T22:23:39.549Z,5.20
2023-08-16T22:26:07.927Z,6.20
2023-08-16T22:28:35.691Z,6.60
2023-08-16T22:31:03.297Z,5.50
2023-08-16T22:33:31.020Z,5.10
2023-08-16T22:35:58.678Z,4.90
2023-08-16T22:38:26.540Z,5.70
2023-08-16T22:40:54.200Z,5.70
2023-08-16T22:43:21.729Z,5.90
2023-08-16T22:45:49.244Z,4.80
2023-08-16T22:48:16.789Z,5.20
2023-08-16T22:50:44.438Z,4.90
2023-08-16T22:53:12.203Z,5.90
2023-08-16T22:55:39.761Z,6.50
2023-08-16T22:58:07.242Z,5.50
2023-08-16T23:00:34.921Z,6.00
2023-08-16T23:03:02.829Z,5.40
2023-08-16T23:05:30.443Z,7.40
2023-08-16T23:07:58.304Z,5.20
2023-08-16T23:10:25.932Z,6.40
2023-08-16T23:12:53.423Z,4.30
2023-08-16T23:15:20.879Z,4.30
2023-08-16T23:17:48.524Z,4.60
2023-08-16T23:20:16.388Z,5.50
2023-08-16T23:22:44.122Z,4.80
2023-08-16T23:25:11.695Z,4.40
2023-08-16T23:27:39.255Z,5.70
2023-08-16T23:30:07.861Z,4.50
2023-08-16T23:32:35.617Z,4.30
2023-08-16T23:35:04.184Z,4.80
2023-08-16T23:37:32.286Z,6.00
2023-08-16T23:39:59.973Z,3.90
2023-08-16T23:42:28.809Z,5.20
2023-08-16T23:44:56.303Z,3.50
2023-08-16T23:47:24.111Z,3.40
2023-08-16T23:49:52.008Z,6.20
2023-08-16T23:52:19.553Z,4.10
2023-08-16T23:54:47.218Z,3.90
2023-08-16T23:57:14.979Z,5.40
2023-08-16T23:59:46.882Z,5.20
